Time;durP1;ratioP1;P1;durP2;ratioP2;P2;SDS_P1;SDS_P2;PMS_P1;PMS_P2;Temp;Humidity;BMP_temperature;BMP_pressure;BME280_temperature;BME280_humidity;BME280_pressure;Samples;Min_cycle;Max_cycle;Signal;HPM_P1;HPM_P2
2022/03/22 00:00:46;;;;;;;26.23;18.98;;;19.50;44.70;;;;;;5119407;28;20020;-48
2022/03/22 00:03:13;;;;;;;27.80;19.73;;;19.40;44.60;;;;;;5119069;28;20019;-53
2022/03/22 00:05:40;;;;;;;27.27;20.13;;;19.50;44.60;;;;;;5119240;28;20020;-52
2022/03/22 00:08:06;;;;;;;27.30;20.30;;;19.50;44.60;;;;;;5101036;28;20477;-52
2022/03/22 00:10:32;;;;;;;27.15;19.73;;;19.50;44.60;;;;;;5119418;28;20089;-54
2022/03/22 00:13:00;;;;;;;27.73;19.58;;;19.40;44.60;;;;;;5118987;28;20024;-51
2022/03/22 00:15:26;;;;;;;27.33;20.02;;;19.40;44.50;;;;;;5118873;28;20474;-55
2022/03/22 00:17:53;;;;;;;26.60;19.60;;;19.40;44.60;;;;;;5119924;28;20043;-55
2022/03/22 00:20:19;;;;;;;25.95;20.77;;;19.40;44.60;;;;;;5119287;28;20061;-52
2022/03/22 00:22:45;;;;;;;25.45;19.42;;;19.40;44.60;;;;;;5119370;28;20020;-57
2022/03/22 00:25:11;;;;;;;26.67;20.15;;;19.40;44.60;;;;;;5100751;28;20528;-57
2022/03/22 00:27:52;;;;;;;27.15;19.90;;;19.40;44.50;;;;;;5100106;28;20044;-59
2022/03/22 00:30:21;;;;;;;24.65;20.13;;;19.40;44.60;;;;;;5118644;28;20044;-55
2022/03/22 00:32:47;;;;;;;25.95;19.27;;;19.40;44.60;;;;;;5118788;28;20034;-56
2022/03/22 00:35:12;;;;;;;23.88;19.23;;;19.40;44.60;;;;;;5120533;28;20019;-57
2022/03/22 00:37:42;;;;;;;23.73;19.88;;;19.40;44.60;;;;;;5103642;28;20004;-58
2022/03/22 00:40:17;;;;;;;25.73;20.05;;;19.40;44.60;;;;;;5121797;28;20027;-57
2022/03/22 00:42:46;;;;;;;26.63;19.42;;;19.40;44.60;;;;;;5120260;28;20020;-57
2022/03/22 00:45:17;;;;;;;26.45;20.15;;;19.40;44.60;;;;;;5120319;28;20008;-55
2022/03/22 00:48:03;;;;;;;28.02;19.67;;;19.40;44.60;;;;;;5119668;28;20020;-54
2022/03/22 00:50:33;;;;;;;25.55;20.48;;;19.40;44.60;;;;;;5117681;28;20030;-57
2022/03/22 00:52:59;;;;;;;26.90;20.42;;;19.30;44.60;;;;;;5117404;28;20007;-57
2022/03/22 00:55:27;;;;;;;24.65;19.40;;;19.30;44.60;;;;;;5116579;28;20084;-52
2022/03/22 00:57:53;;;;;;;22.00;18.60;;;19.30;44.60;;;;;;5116865;28;20034;-52
2022/03/22 01:00:20;;;;;;;23.67;20.05;;;19.30;44.60;;;;;;5116653;28;20015;-51
2022/03/22 01:02:50;;;;;;;24.27;20.02;;;19.30;44.60;;;;;;5116965;28;20020;-53
2022/03/22 01:05:20;;;;;;;26.02;19.40;;;19.30;44.60;;;;;;5116415;28;20024;-51
2022/03/22 01:07:48;;;;;;;24.23;19.83;;;19.30;44.60;;;;;;5117326;28;20016;-52
2022/03/22 01:10:14;;;;;;;28.70;20.85;;;19.30;44.60;;;;;;5117171;28;20481;-51
2022/03/22 01:12:41;;;;;;;26.92;19.65;;;19.30;44.60;;;;;;5118510;28;20470;-53
2022/03/22 01:15:10;;;;;;;26.17;19.90;;;19.30;44.60;;;;;;5120002;28;20026;-55
2022/03/22 01:17:36;;;;;;;30.05;20.25;;;19.30;44.60;;;;;;5120181;28;20026;-55
2022/03/22 01:20:05;;;;;;;27.25;18.80;;;19.20;44.50;;;;;;5120354;28;20018;-52
2022/03/22 01:22:31;;;;;;;24.23;19.65;;;19.20;44.60;;;;;;5120128;28;20373;-53
2022/03/22 01:24:58;;;;;;;22.90;19.73;;;19.20;44.50;;;;;;5102327;28;20034;-51
2022/03/22 01:27:24;;;;;;;24.00;19.83;;;19.30;44.60;;;;;;5122689;28;20145;-53
2022/03/22 01:29:50;;;;;;;29.40;20.33;;;19.20;44.60;;;;;;5120422;28;20074;-52
2022/03/22 01:32:16;;;;;;;27.40;20.17;;;19.20;44.50;;;;;;5118280;28;20016;-50
2022/03/22 01:34:42;;;;;;;29.48;20.20;;;19.20;44.50;;;;;;5119588;28;20095;-52
2022/03/22 01:37:09;;;;;;;25.77;20.13;;;19.20;44.60;;;;;;5119592;28;20043;-51
2022/03/22 01:39:35;;;;;;;27.10;19.77;;;19.20;44.60;;;;;;5119185;28;20045;-51
2022/03/22 01:42:00;;;;;;;23.85;20.20;;;19.20;44.60;;;;;;5119655;28;20454;-53
2022/03/22 01:44:27;;;;;;;23.98;19.45;;;19.20;44.60;;;;;;5119326;28;20020;-54
2022/03/22 01:46:54;;;;;;;24.58;18.95;;;19.20;44.60;;;;;;5119613;28;20548;-54
2022/03/22 01:49:21;;;;;;;28.88;19.63;;;19.20;44.60;;;;;;5084987;28;20019;-48
2022/03/22 01:51:48;;;;;;;25.58;19.65;;;19.20;44.50;;;;;;5120239;28;20039;-53
2022/03/22 01:54:14;;;;;;;25.08;19.75;;;19.20;44.60;;;;;;5119135;28;20008;-52
2022/03/22 01:56:40;;;;;;;26.80;19.10;;;19.20;44.50;;;;;;5101220;28;20016;-52
2022/03/22 01:59:06;;;;;;;25.35;20.67;;;19.20;44.50;;;;;;5120001;28;20028;-52
2022/03/22 02:07:03;;;;;;;23.95;19.70;;;19.10;44.50;;;;;;5118872;28;20042;-50
2022/03/22 02:09:29;;;;;;;23.98;18.75;;;19.10;44.50;;;;;;5101447;28;20458;-53
2022/03/22 02:11:55;;;;;;;27.15;19.55;;;19.10;44.50;;;;;;5118544;28;20500;-50
2022/03/22 02:14:22;;;;;;;23.00;19.05;;;19.10;44.50;;;;;;5119260;28;20024;-52
2022/03/22 02:16:48;;;;;;;22.20;18.65;;;19.10;44.50;;;;;;5118887;28;20043;-52
2022/03/22 02:19:17;;;;;;;22.25;18.73;;;19.10;44.50;;;;;;5117649;28;20016;-51
2022/03/22 02:21:43;;;;;;;26.20;18.77;;;19.10;44.60;;;;;;5116829;28;20016;-54
2022/03/22 02:24:09;;;;;;;21.13;17.65;;;19.10;44.60;;;;;;5116446;28;20381;-52
2022/03/22 02:26:37;;;;;;;26.13;18.15;;;19.10;44.50;;;;;;5115543;28;20019;-53
2022/03/22 02:29:03;;;;;;;25.70;19.40;;;19.10;44.50;;;;;;5097247;28;20020;-51
2022/03/22 02:31:30;;;;;;;22.00;18.90;;;19.10;44.60;;;;;;5114830;28;20046;-51
2022/03/22 02:33:56;;;;;;;20.88;17.95;;;19.10;44.50;;;;;;5097713;28;20026;-50
2022/03/22 02:36:22;;;;;;;23.38;18.20;;;19.10;44.50;;;;;;5117150;28;20012;-50
2022/03/22 02:38:48;;;;;;;21.92;18.70;;;19.10;44.60;;;;;;5119785;28;20084;-52
2022/03/22 02:41:16;;;;;;;23.70;19.20;;;19.00;44.40;;;;;;5121021;28;20012;-52
2022/03/22 02:43:43;;;;;;;23.00;18.10;;;19.00;44.40;;;;;;5121534;28;20016;-50
2022/03/22 02:46:09;;;;;;;25.30;19.55;;;19.00;44.50;;;;;;5121387;28;20011;-48
2022/03/22 02:48:35;;;;;;;20.67;17.77;;;19.00;44.40;;;;;;5121334;28;20072;-54
2022/03/22 02:51:01;;;;;;;24.13;18.80;;;19.00;44.40;;;;;;5121258;28;20106;-53
2022/03/22 02:53:28;;;;;;;23.05;18.83;;;19.00;44.40;;;;;;5120548;28;20108;-53
2022/03/22 02:55:53;;;;;;;22.63;18.45;;;19.00;44.50;;;;;;5120464;28;20099;-52
2022/03/22 02:58:21;;;;;;;22.60;18.70;;;19.00;44.50;;;;;;5120786;28;20073;-51
2022/03/22 03:00:46;;;;;;;22.52;18.38;;;19.00;44.50;;;;;;5119857;28;20077;-52
2022/03/22 03:03:12;;;;;;;25.63;19.98;;;19.00;44.50;;;;;;5119738;28;20420;-47
2022/03/22 03:05:38;;;;;;;22.80;18.63;;;19.00;44.50;;;;;;5119677;28;20407;-51
2022/03/22 03:08:04;;;;;;;24.08;19.02;;;19.00;44.50;;;;;;5120389;28;20027;-50
2022/03/22 03:10:30;;;;;;;21.55;19.02;;;19.00;44.50;;;;;;5120492;28;20072;-50
2022/03/22 03:13:00;;;;;;;26.73;18.50;;;19.00;44.50;;;;;;5102849;28;20016;-49
2022/03/22 03:15:26;;;;;;;22.42;19.13;;;19.00;44.40;;;;;;5120310;28;20092;-54
2022/03/22 03:17:52;;;;;;;23.75;18.60;;;18.90;44.40;;;;;;5119825;28;20019;-51
2022/03/22 03:20:18;;;;;;;24.58;18.20;;;19.00;44.50;;;;;;5119613;28;20018;-52
2022/03/22 03:22:44;;;;;;;23.65;19.02;;;19.00;44.40;;;;;;5118155;28;20028;-49
2022/03/22 03:25:10;;;;;;;20.52;17.60;;;18.90;44.50;;;;;;5118003;28;20016;-50
2022/03/22 03:27:36;;;;;;;21.77;18.27;;;19.00;44.50;;;;;;5100380;28;20407;-52
2022/03/22 03:30:06;;;;;;;22.00;18.48;;;19.00;44.60;;;;;;5118160;28;20101;-52
2022/03/22 03:32:32;;;;;;;22.83;18.70;;;18.90;44.50;;;;;;5118675;28;20016;-52
2022/03/22 03:34:59;;;;;;;23.48;18.52;;;18.90;44.50;;;;;;5119193;28;20043;-48
2022/03/22 03:37:27;;;;;;;22.73;18.95;;;18.90;44.50;;;;;;5118156;28;20024;-52
2022/03/22 03:39:52;;;;;;;27.20;18.23;;;18.90;44.50;;;;;;5117903;28;20084;-51
2022/03/22 03:42:18;;;;;;;22.27;17.40;;;18.90;44.40;;;;;;5117480;28;20407;-48
2022/03/22 03:47:29;;;;;;;23.10;18.52;;;18.90;44.50;;;;;;5101978;28;20072;-51
2022/03/22 03:49:59;;;;;;;20.73;17.50;;;18.90;44.50;;;;;;5115735;28;20415;-48
2022/03/22 03:52:26;;;;;;;;;;;18.90;44.50;;;;;;5117888;28;20011;-51
2022/03/22 03:54:52;;;;;;;22.15;17.75;;;18.90;44.40;;;;;;5117381;28;19907;-56
2022/03/22 03:57:19;;;;;;;22.08;18.27;;;18.80;44.40;;;;;;5118239;28;20092;-51
2022/03/22 03:59:45;;;;;;;20.52;17.50;;;18.80;44.40;;;;;;5117519;28;20019;-52
2022/03/22 04:02:11;;;;;;;34.72;18.20;;;18.80;44.50;;;;;;5117853;28;20016;-51
2022/03/22 04:04:41;;;;;;;22.45;18.08;;;18.80;44.40;;;;;;5118183;28;20027;-47
2022/03/22 04:07:08;;;;;;;23.02;17.65;;;18.80;44.40;;;;;;5118287;28;20103;-49
2022/03/22 04:09:36;;;;;;;22.80;17.60;;;18.80;44.40;;;;;;5118476;28;20380;-54
2022/03/22 04:12:03;;;;;;;20.25;18.05;;;18.90;44.50;;;;;;5118341;28;20021;-50
2022/03/22 04:14:29;;;;;;;21.95;18.13;;;18.80;44.40;;;;;;5117745;28;20024;-51
2022/03/22 04:16:57;;;;;;;24.08;17.95;;;18.90;44.40;;;;;;5099212;28;20016;-46
2022/03/22 04:19:24;;;;;;;24.20;17.63;;;18.80;44.40;;;;;;5117221;28;20110;-54
2022/03/22 04:21:50;;;;;;;21.30;16.98;;;18.80;44.40;;;;;;5117120;28;20016;-49
2022/03/22 04:24:15;;;;;;;22.08;18.10;;;18.80;44.40;;;;;;5118219;28;20015;-48
2022/03/22 04:26:42;;;;;;;23.80;18.35;;;18.80;44.30;;;;;;5118613;28;20015;-48
2022/03/22 04:34:41;;;;;;;21.65;17.50;;;18.80;44.90;;;;;;5103522;28;20042;-46
2022/03/22 04:37:08;;;;;;;22.65;17.08;;;18.80;44.40;;;;;;5101723;28;20031;-53
2022/03/22 04:39:34;;;;;;;22.00;17.73;;;18.80;44.40;;;;;;5120084;28;20048;-53
2022/03/22 04:42:00;;;;;;;21.02;17.48;;;18.70;44.40;;;;;;5101392;28;20081;-57
2022/03/22 04:44:27;;;;;;;21.63;17.08;;;18.80;44.40;;;;;;5101889;28;20015;-57
2022/03/22 04:46:53;;;;;;;21.58;17.38;;;18.80;44.40;;;;;;5119082;28;20478;-54
2022/03/22 04:49:19;;;;;;;20.80;17.80;;;18.80;44.40;;;;;;5103252;28;20031;-56
2022/03/22 04:57:15;;;;;;;20.40;16.63;;;18.80;44.40;;;;;;5120329;28;20034;-58
2022/03/22 04:59:42;;;;;;;20.13;17.88;;;18.70;44.30;;;;;;5119912;28;20030;-57
2022/03/22 05:02:08;;;;;;;19.33;16.83;;;18.80;44.40;;;;;;5118062;28;20027;-54
2022/03/22 05:04:34;;;;;;;23.10;17.33;;;18.70;44.40;;;;;;5118441;28;20016;-52
2022/03/22 05:07:05;;;;;;;25.85;17.25;;;18.70;44.40;;;;;;5118884;28;20468;-54
2022/03/22 05:09:31;;;;;;;22.13;16.65;;;18.70;44.30;;;;;;5101510;28;20054;-58
2022/03/22 05:11:57;;;;;;;17.48;15.68;;;18.70;44.30;;;;;;5121368;28;20370;-58
2022/03/22 05:14:24;;;;;;;21.60;16.50;;;18.70;44.30;;;;;;5123349;28;20019;-55
2022/03/22 05:16:50;;;;;;;19.45;16.40;;;18.70;44.30;;;;;;5124076;28;20015;-57
2022/03/22 05:19:17;;;;;;;20.05;15.65;;;18.70;44.30;;;;;;5122581;28;20028;-58
2022/03/22 05:21:44;;;;;;;20.17;16.40;;;18.70;44.30;;;;;;5120884;28;20020;-58
2022/03/22 05:24:10;;;;;;;19.23;16.77;;;18.70;44.20;;;;;;5120613;28;20016;-56
2022/03/22 05:26:36;;;;;;;21.80;16.58;;;18.70;44.20;;;;;;5120000;28;20027;-58
2022/03/22 05:29:04;;;;;;;19.55;16.27;;;18.70;44.80;;;;;;5099083;28;20019;-58
2022/03/22 05:31:30;;;;;;;20.67;16.42;;;18.70;44.30;;;;;;5117122;28;20047;-57
2022/03/22 05:33:57;;;;;;;20.00;16.30;;;18.70;44.30;;;;;;5116949;28;20027;-57
2022/03/22 05:36:22;;;;;;;19.45;15.40;;;18.70;44.20;;;;;;5118102;28;20036;-56
2022/03/22 05:38:48;;;;;;;19.00;16.17;;;18.70;44.20;;;;;;5118358;28;20036;-55
2022/03/22 05:41:14;;;;;;;19.25;16.08;;;18.70;44.20;;;;;;5118179;28;20472;-56
2022/03/22 05:43:42;;;;;;;18.02;15.88;;;18.70;44.10;;;;;;5099417;28;20037;-58
2022/03/22 05:46:09;;;;;;;17.60;15.52;;;18.70;44.10;;;;;;5117489;28;20068;-53
2022/03/22 05:48:38;;;;;;;23.08;15.68;;;18.70;44.20;;;;;;5098561;28;20028;-54
2022/03/22 05:51:04;;;;;;;21.15;16.42;;;18.60;44.20;;;;;;5116335;28;20024;-59
2022/03/22 05:53:30;;;;;;;20.23;16.20;;;18.70;44.20;;;;;;5116637;28;20023;-55
2022/03/22 05:55:57;;;;;;;20.88;16.15;;;18.70;44.20;;;;;;5117153;28;20035;-51
2022/03/22 05:58:23;;;;;;;21.42;16.50;;;18.60;44.10;;;;;;5116999;28;20024;-54
2022/03/22 06:00:49;;;;;;;21.98;14.95;;;18.60;44.10;;;;;;5099128;28;20026;-50
2022/03/22 06:03:15;;;;;;;20.27;16.27;;;18.70;44.20;;;;;;5098774;28;20043;-54
2022/03/22 06:05:42;;;;;;;19.17;15.25;;;18.60;44.20;;;;;;5117031;28;20073;-56
2022/03/22 06:08:08;;;;;;;17.52;15.10;;;18.60;44.20;;;;;;5116615;28;20020;-57
2022/03/22 06:10:33;;;;;;;17.23;14.68;;;18.60;44.20;;;;;;5116221;28;20516;-57
2022/03/22 06:13:00;;;;;;;19.40;15.63;;;18.60;44.20;;;;;;5117942;28;20560;-52
2022/03/22 06:15:27;;;;;;;21.75;15.05;;;18.60;44.20;;;;;;5120859;28;20034;-51
2022/03/22 06:17:56;;;;;;;17.30;15.40;;;18.60;44.20;;;;;;5120439;28;20018;-50
2022/03/22 06:20:27;;;;;;;17.55;14.95;;;18.60;44.10;;;;;;5121880;28;20026;-54
2022/03/22 06:22:53;;;;;;;18.17;14.95;;;18.60;44.10;;;;;;5123257;28;20133;-55
2022/03/22 06:25:19;;;;;;;18.95;15.50;;;18.60;44.10;;;;;;5125107;28;20023;-53
2022/03/22 06:27:46;;;;;;;17.67;15.77;;;18.60;44.10;;;;;;5124237;28;20012;-55
2022/03/22 06:30:13;;;;;;;22.33;15.40;;;18.60;44.10;;;;;;5122978;28;20040;-53
2022/03/22 06:32:45;;;;;;;17.10;14.68;;;18.60;44.10;;;;;;5121252;28;20039;-54
2022/03/22 06:35:12;;;;;;;18.17;14.85;;;18.60;44.10;;;;;;5120718;28;20023;-51
2022/03/22 06:37:38;;;;;;;20.10;15.70;;;18.60;44.10;;;;;;5120873;28;20015;-52
2022/03/22 06:40:06;;;;;;;18.17;14.75;;;18.60;44.10;;;;;;5120567;28;20064;-52
2022/03/22 06:42:32;;;;;;;18.17;15.23;;;18.60;44.20;;;;;;5120427;28;20053;-54
2022/03/22 06:44:58;;;;;;;18.27;15.48;;;18.60;44.30;;;;;;5103189;28;20011;-53
2022/03/22 06:47:24;;;;;;;17.65;14.88;;;18.60;44.10;;;;;;5121336;28;20026;-52
2022/03/22 06:49:50;;;;;;;18.58;14.70;;;18.60;44.20;;;;;;5120573;28;20398;-51
2022/03/22 06:52:15;;;;;;;18.48;15.00;;;18.60;44.20;;;;;;5102308;28;20027;-54
2022/03/22 06:54:42;;;;;;;19.20;15.20;;;18.60;44.10;;;;;;5120723;28;20036;-52
2022/03/22 06:57:08;;;;;;;16.40;14.60;;;18.60;44.10;;;;;;5086323;28;20073;-51
2022/03/22 06:59:34;;;;;;;17.90;14.73;;;18.60;44.20;;;;;;5102852;28;20080;-53
2022/03/22 07:02:00;;;;;;;18.38;14.38;;;18.60;44.20;;;;;;5120171;28;20024;-51
2022/03/22 07:04:27;;;;;;;24.20;13.85;;;18.60;44.10;;;;;;5120052;28;20044;-52
2022/03/22 07:06:53;;;;;;;17.52;15.10;;;18.50;44.00;;;;;;5119961;28;20638;-54
2022/03/22 07:09:19;;;;;;;15.70;13.88;;;18.60;44.10;;;;;;5100314;28;20015;-51
2022/03/22 07:11:52;;;;;;;17.98;14.48;;;18.60;44.10;;;;;;5100461;28;20022;-53
2022/03/22 07:14:22;;;;;;;18.95;14.48;;;18.50;44.10;;;;;;5100074;28;20477;-49
2022/03/22 07:16:49;;;;;;;16.52;13.80;;;18.50;44.10;;;;;;5117546;28;20102;-50
2022/03/22 07:19:17;;;;;;;18.80;14.45;;;18.50;44.10;;;;;;5116682;28;20068;-58
2022/03/22 07:21:43;;;;;;;20.23;14.43;;;18.60;44.10;;;;;;5113952;28;20022;-52
2022/03/22 07:24:09;;;;;;;16.13;13.80;;;18.50;44.00;;;;;;5096421;28;20027;-51
2022/03/22 07:26:35;;;;;;;16.48;14.48;;;18.50;44.10;;;;;;5115133;28;20024;-53
2022/03/22 07:29:01;;;;;;;16.05;13.73;;;18.50;44.00;;;;;;5115204;28;20119;-51
2022/03/22 07:31:27;;;;;;;15.90;14.20;;;18.60;44.00;;;;;;5096512;28;20127;-48
2022/03/22 07:33:52;;;;;;;18.50;14.43;;;18.60;44.00;;;;;;5097059;28;20008;-47
2022/03/22 07:36:18;;;;;;;15.80;14.13;;;18.60;44.00;;;;;;5115025;28;20476;-52
2022/03/22 07:38:44;;;;;;;16.77;14.80;;;18.60;43.90;;;;;;5114285;28;20036;-53
2022/03/22 07:41:13;;;;;;;14.98;13.38;;;18.60;44.00;;;;;;5114913;28;20016;-55
2022/03/22 07:43:40;;;;;;;14.75;13.15;;;18.60;44.00;;;;;;5114854;28;20098;-52
2022/03/22 07:46:06;;;;;;;19.15;14.70;;;18.60;44.00;;;;;;5114593;28;20107;-55
2022/03/22 07:48:32;;;;;;;18.52;14.60;;;18.60;44.00;;;;;;5114832;28;20035;-53
2022/03/22 07:53:43;;;;;;;18.20;13.82;;;18.60;43.90;;;;;;5115033;28;20211;-53
2022/03/22 07:56:09;;;;;;;16.15;13.82;;;18.60;43.90;;;;;;5114805;28;20028;-58
2022/03/22 07:58:35;;;;;;;18.27;13.77;;;18.60;43.90;;;;;;5096049;28;20027;-57
2022/03/22 08:01:01;;;;;;;14.85;13.25;;;18.60;43.80;;;;;;5096511;28;20753;-56
2022/03/22 08:03:27;;;;;;;17.00;14.38;;;18.60;43.80;;;;;;5114230;28;20458;-57
2022/03/22 08:05:53;;;;;;;16.63;13.65;;;18.60;43.80;;;;;;5113888;28;20016;-57
2022/03/22 08:08:20;;;;;;;17.17;14.18;;;18.60;43.80;;;;;;5113740;28;20096;-58
2022/03/22 08:10:45;;;;;;;15.57;13.88;;;18.60;43.80;;;;;;5115617;28;20024;-58
2022/03/22 08:13:12;;;;;;;18.42;13.88;;;18.60;43.80;;;;;;5115941;28;20016;-59
2022/03/22 08:15:38;;;;;;;21.23;13.93;;;18.60;43.80;;;;;;5115877;28;20020;-59
2022/03/22 08:18:04;;;;;;;20.75;13.05;;;18.80;44.70;;;;;;5117059;28;20027;-59
2022/03/22 08:20:30;;;;;;;27.85;13.23;;;18.90;44.80;;;;;;5101954;28;20102;-59
2022/03/22 08:23:02;;;;;;;29.73;14.43;;;18.90;44.10;;;;;;5103273;28;20039;-62
2022/03/22 08:25:29;;;;;;;21.98;12.13;;;19.00;45.00;;;;;;5083335;28;20019;-58
2022/03/22 08:27:56;;;;;;;28.17;13.77;;;19.00;44.90;;;;;;5116433;28;20011;-58
2022/03/22 08:30:23;;;;;;;30.17;12.48;;;19.20;45.30;;;;;;5117236;28;20035;-58
2022/03/22 08:32:49;;;;;;;28.52;13.57;;;19.20;45.60;;;;;;5117025;28;20023;-58
2022/03/22 08:35:16;;;;;;;33.83;13.35;;;19.30;45.80;;;;;;5116420;28;20018;-59
2022/03/22 08:37:42;;;;;;;36.83;14.30;;;19.40;45.90;;;;;;5117693;28;20018;-58
2022/03/22 08:40:09;;;;;;;26.52;12.68;;;19.60;45.90;;;;;;5099853;28;20020;-58
2022/03/22 08:42:37;;;;;;;27.10;13.27;;;19.60;46.10;;;;;;5118113;28;20095;-58
2022/03/22 08:45:06;;;;;;;38.22;13.70;;;19.70;46.10;;;;;;5118060;28;20011;-59
2022/03/22 08:47:35;;;;;;;35.03;14.02;;;19.80;46.20;;;;;;5117512;28;20015;-58
2022/03/22 08:50:01;;;;;;;25.23;12.13;;;19.80;46.30;;;;;;5117519;28;20238;-57
2022/03/22 08:52:27;;;;;;;24.05;11.82;;;19.90;46.60;;;;;;5098766;28;20016;-58
2022/03/22 08:54:53;;;;;;;41.80;12.63;;;19.90;46.60;;;;;;5116876;28;20125;-58
2022/03/22 08:57:19;;;;;;;37.78;13.27;;;20.00;46.70;;;;;;5098988;28;20098;-55
2022/03/22 08:59:45;;;;;;;23.45;12.40;;;20.10;46.70;;;;;;5098993;28;20032;-58
2022/03/22 09:02:11;;;;;;;42.10;12.35;;;20.10;46.80;;;;;;5116432;28;20467;-54
2022/03/22 09:07:21;;;;;;;36.17;13.45;;;20.10;46.80;;;;;;5117294;28;20031;-61
2022/03/22 09:09:47;;;;;;;30.65;14.25;;;19.90;45.70;;;;;;5099783;28;20012;-58
2022/03/22 09:12:13;;;;;;;26.55;12.95;;;19.30;45.70;;;;;;5099688;28;20361;-59
2022/03/22 09:14:39;;;;;;;27.00;13.57;;;19.20;44.80;;;;;;5115961;28;20019;-58
2022/03/22 09:17:06;;;;;;;23.85;13.40;;;18.90;44.30;;;;;;5096724;28;20099;-52
2022/03/22 09:19:36;;;;;;;24.80;13.15;;;18.90;45.10;;;;;;5114621;28;20032;-52
2022/03/22 09:22:05;;;;;;;35.83;13.18;;;19.20;44.90;;;;;;5114709;28;20099;-51
2022/03/22 09:24:35;;;;;;;28.58;12.93;;;19.40;45.10;;;;;;5096101;28;20012;-49
2022/03/22 09:27:01;;;;;;;23.30;13.68;;;19.50;45.30;;;;;;5115715;28;20099;-51
2022/03/22 09:29:27;;;;;;;26.50;12.80;;;19.60;44.40;;;;;;5095246;28;20110;-49
2022/03/22 09:31:53;;;;;;;31.42;13.65;;;19.30;44.60;;;;;;5098831;28;20051;-53
2022/03/22 09:34:22;;;;;;;28.90;12.88;;;19.50;44.40;;;;;;5117742;28;20011;-51
2022/03/22 09:36:50;;;;;;;34.13;13.20;;;19.60;43.80;;;;;;5118047;28;20019;-49
2022/03/22 09:39:19;;;;;;;24.40;12.82;;;19.70;43.80;;;;;;5117395;28;20024;-47
2022/03/22 09:41:47;;;;;;;25.42;12.77;;;19.70;43.90;;;;;;5115892;28;20012;-48
2022/03/22 09:44:15;;;;;;;23.98;13.18;;;19.70;43.00;;;;;;5116272;28;20012;-51
2022/03/22 09:46:48;;;;;;;21.50;13.38;;;19.70;43.40;;;;;;5097261;28;20104;-50
2022/03/22 09:49:15;;;;;;;22.52;12.65;;;19.70;42.30;;;;;;5116736;28;20008;-47
2022/03/22 09:51:48;;;;;;;23.88;13.00;;;19.50;43.80;;;;;;5116775;28;20020;-49
2022/03/22 09:54:18;;;;;;;25.67;12.82;;;19.60;43.10;;;;;;5098237;28;20092;-49
2022/03/22 09:56:45;;;;;;;22.25;13.10;;;19.70;43.30;;;;;;5098256;28;20080;-49
2022/03/22 09:59:11;;;;;;;18.75;12.85;;;19.80;43.10;;;;;;5098393;28;20026;-49
2022/03/22 10:01:37;;;;;;;22.30;13.57;;;19.80;43.10;;;;;;5116757;28;20016;-50
2022/03/22 10:04:07;;;;;;;21.15;12.57;;;19.80;43.00;;;;;;5115844;28;20015;-48
2022/03/22 10:06:33;;;;;;;38.53;14.02;;;19.90;43.20;;;;;;5116374;28;20022;-50
2022/03/22 10:09:03;;;;;;;24.90;13.35;;;20.00;43.00;;;;;;5113574;28;20012;-49
2022/03/22 10:11:36;;;;;;;39.58;13.52;;;20.10;42.90;;;;;;5113688;28;20126;-49
2022/03/22 10:14:02;;;;;;;27.95;13.90;;;20.10;43.00;;;;;;5112968;28;20454;-48
2022/03/22 10:16:28;;;;;;;29.90;13.73;;;20.00;41.20;;;;;;5094093;28;20024;-48
2022/03/22 10:18:53;;;;;;;29.73;15.02;;;20.00;43.10;;;;;;5112017;28;20073;-46
2022/03/22 10:21:19;;;;;;;32.47;13.77;;;20.20;43.00;;;;;;5093750;28;20004;-47
2022/03/22 10:23:54;;;;;;;25.48;14.85;;;20.30;43.00;;;;;;5076636;28;20440;-47
2022/03/22 10:26:20;;;;;;;31.23;14.85;;;20.40;42.40;;;;;;5112255;28;20015;-47
2022/03/22 10:28:54;;;;;;;26.98;13.68;;;20.50;42.80;;;;;;5112221;28;20214;-47
2022/03/22 10:31:31;;;;;;;25.33;13.50;;;20.60;42.60;;;;;;5112799;28;20074;-49
2022/03/22 10:33:58;;;;;;;29.90;13.90;;;20.60;43.00;;;;;;5112685;28;20028;-52
2022/03/22 10:36:25;;;;;;;24.02;13.18;;;20.70;42.90;;;;;;5113269;28;20031;-50
2022/03/22 10:38:59;;;;;;;22.30;13.55;;;20.70;42.30;;;;;;5113328;28;20024;-50
2022/03/22 10:41:26;;;;;;;27.77;14.93;;;20.70;42.20;;;;;;5095694;28;20023;-47
2022/03/22 10:44:05;;;;;;;24.00;12.82;;;20.80;41.90;;;;;;5095012;28;20050;-48
2022/03/22 10:46:31;;;;;;;32.67;14.68;;;20.90;42.60;;;;;;5112731;28;20016;-50
2022/03/22 10:49:11;;;;;;;22.67;13.95;;;20.90;42.00;;;;;;5112516;28;20038;-50
2022/03/22 10:51:42;;;;;;;27.52;13.90;;;20.90;42.40;;;;;;5113037;28;20008;-49
2022/03/22 10:54:16;;;;;;;20.77;13.73;;;20.80;41.40;;;;;;5112424;28;20019;-48
2022/03/22 10:56:48;;;;;;;29.23;14.85;;;20.50;41.60;;;;;;5114189;28;20541;-47
2022/03/22 10:59:17;;;;;;;38.50;14.73;;;20.60;41.70;;;;;;5116567;28;20042;-46
2022/03/22 11:01:45;;;;;;;35.30;15.38;;;20.50;41.30;;;;;;5117775;28;20095;-47
2022/03/22 11:04:11;;;;;;;34.65;14.27;;;20.40;41.50;;;;;;5117112;28;20060;-46
2022/03/22 11:06:38;;;;;;;36.65;14.07;;;20.40;41.70;;;;;;5099910;28;20020;-49
2022/03/22 11:09:04;;;;;;;30.95;13.65;;;20.60;41.70;;;;;;5117798;28;20091;-47
2022/03/22 11:11:31;;;;;;;32.33;13.23;;;20.70;41.80;;;;;;5099388;28;20043;-48
2022/03/22 11:13:57;;;;;;;34.40;14.15;;;20.70;41.60;;;;;;5118022;28;20057;-50
2022/03/22 11:16:28;;;;;;;27.05;14.20;;;20.70;41.30;;;;;;5118338;28;20024;-50
2022/03/22 11:18:55;;;;;;;29.92;13.70;;;20.80;41.10;;;;;;5099721;28;20020;-46
2022/03/22 11:21:21;;;;;;;35.97;13.13;;;20.80;40.90;;;;;;5100150;28;20072;-45
2022/03/22 11:23:47;;;;;;;28.17;13.23;;;20.90;41.20;;;;;;5117778;28;20011;-47
2022/03/22 11:26:17;;;;;;;22.73;12.70;;;20.90;41.40;;;;;;5117671;28;20406;-48
2022/03/22 11:28:44;;;;;;;32.33;13.18;;;20.90;41.30;;;;;;5117977;28;20032;-44
2022/03/22 11:31:10;;;;;;;25.73;13.82;;;21.00;41.40;;;;;;5098210;28;20050;-46
2022/03/22 11:36:28;;;;;;;24.63;13.80;;;21.10;41.60;;;;;;5116605;28;20096;-44
2022/03/22 11:38:58;;;;;;;27.60;13.07;;;21.10;41.60;;;;;;5117582;28;20027;-45
2022/03/22 11:44:38;;;;;;;27.02;13.43;;;21.10;41.40;;;;;;5119209;28;20386;-47
2022/03/22 11:47:14;;;;;;;46.67;15.20;;;21.10;41.10;;;;;;5116694;28;20388;-50
2022/03/22 11:50:03;;;;;;;36.88;15.27;;;21.20;41.50;;;;;;5097036;28;20020;-51
2022/03/22 11:52:40;;;;;;;50.47;15.10;;;21.50;42.00;;;;;;5116206;28;20115;-49
2022/03/22 11:55:07;;;;;;;33.83;14.23;;;21.70;42.30;;;;;;5116283;28;20069;-50
2022/03/22 11:57:48;;;;;;;34.00;15.75;;;21.70;41.50;;;;;;5117019;28;20119;-47
2022/03/22 12:00:16;;;;;;;37.58;16.00;;;21.70;41.30;;;;;;5117026;28;20122;-48
2022/03/22 12:02:51;;;;;;;39.05;15.02;;;21.70;40.50;;;;;;5116958;28;20434;-46
2022/03/22 12:05:20;;;;;;;39.83;14.68;;;21.70;40.80;;;;;;5117477;28;20019;-46
2022/03/22 12:07:47;;;;;;;28.40;14.02;;;21.70;41.40;;;;;;5116653;28;20428;-50
2022/03/22 12:10:15;;;;;;;27.65;14.20;;;21.70;40.70;;;;;;5096355;28;20019;-50
2022/03/22 12:12:49;;;;;;;31.38;13.65;;;21.70;39.90;;;;;;5117021;28;20035;-53
2022/03/22 12:15:19;;;;;;;33.25;14.70;;;21.80;39.60;;;;;;5116866;28;20079;-51
2022/03/22 12:17:47;;;;;;;25.30;14.45;;;21.90;39.50;;;;;;5117335;28;20443;-47
2022/03/22 12:20:14;;;;;;;29.92;13.88;;;21.80;39.20;;;;;;5115491;28;20068;-45
2022/03/22 12:22:41;;;;;;;40.22;14.23;;;21.90;39.20;;;;;;5113603;28;20020;-50
2022/03/22 12:25:08;;;;;;;48.92;14.68;;;21.70;39.50;;;;;;5115688;28;20103;-49
2022/03/22 12:27:34;;;;;;;28.55;14.32;;;21.70;38.00;;;;;;5115841;28;20019;-47
2022/03/22 12:30:08;;;;;;;23.85;12.50;;;21.70;38.30;;;;;;5116484;28;20070;-48
2022/03/22 12:32:34;;;;;;;33.75;14.15;;;21.80;38.50;;;;;;5097378;28;20024;-49
2022/03/22 12:35:00;;;;;;;29.52;13.23;;;21.70;37.90;;;;;;5115099;28;20016;-47
2022/03/22 12:37:26;;;;;;;25.80;12.25;;;21.80;38.30;;;;;;5113400;28;20035;-49
2022/03/22 12:39:52;;;;;;;28.40;11.75;;;21.90;38.60;;;;;;5112696;28;20107;-47
2022/03/22 12:42:19;;;;;;;40.22;13.30;;;21.90;38.80;;;;;;5077969;28;20088;-46
2022/03/22 12:44:47;;;;;;;37.50;12.55;;;21.90;38.30;;;;;;5113885;28;20437;-46
2022/03/22 12:47:12;;;;;;;27.63;11.30;;;22.00;38.60;;;;;;5113174;28;20022;-49
2022/03/22 12:49:42;;;;;;;25.02;11.30;;;22.10;38.30;;;;;;5095139;28;20011;-46
2022/03/22 12:52:11;;;;;;;32.58;11.27;;;22.10;38.50;;;;;;5113375;28;20462;-50
2022/03/22 12:54:40;;;;;;;24.40;10.20;;;22.10;37.80;;;;;;5113562;28;20019;-45
2022/03/22 12:57:07;;;;;;;33.70;11.57;;;22.00;34.50;;;;;;5095557;28;20016;-47
2022/03/22 12:59:34;;;;;;;32.78;12.57;;;22.00;37.80;;;;;;5095203;28;20434;-46